Time;durP1;ratioP1;P1;durP2;ratioP2;P2;SDS_P1;SDS_P2;PMS_P1;PMS_P2;Temp;Humidity;BMP_temperature;BMP_pressure;BME280_temperature;BME280_humidity;BME280_pressure;Samples;Min_cycle;Max_cycle;Signal;HPM_P1;HPM_P2
2023/01/10 00:00:35;;;;;;;6.23;5.33;;;;;;;;;;6311745;28;20472;-86
2023/01/10 00:03:42;;;;;;;9.17;5.57;;;;;;;;;;6312314;28;20290;-86
2023/01/10 00:06:48;;;;;;;7.60;5.23;;;;;;;;;;6310765;28;20294;-87
2023/01/10 00:09:53;;;;;;;5.80;4.83;;;;;;;;;;6310334;28;20303;-86
2023/01/10 00:16:26;;;;;;;7.20;5.60;;;;;;;;;;6309854;28;20366;-86
2023/01/10 00:19:32;;;;;;;5.47;4.63;;;;;;;;;;6310650;28;20381;-86
2023/01/10 00:22:39;;;;;;;5.93;5.10;;;;;;;;;;6316243;28;20257;-86
2023/01/10 00:25:45;;;;;;;6.07;5.47;;;;;;;;;;6326401;28;20254;-86
2023/01/10 00:28:53;;;;;;;5.00;4.50;;;;;;;;;;6323777;28;20224;-86
2023/01/10 00:32:00;;;;;;;5.77;4.90;;;;;;;;;;6311242;28;20275;-86
2023/01/10 00:35:08;;;;;;;5.20;4.70;;;;;;;;;;6311381;28;20457;-85
2023/01/10 00:38:14;;;;;;;7.87;5.13;;;;;;;;;;6311489;28;20382;-86
2023/01/10 00:44:45;;;;;;;8.03;5.10;;;;;;;;;;6309633;28;20290;-86
2023/01/10 00:47:57;;;;;;;5.90;4.70;;;;;;;;;;6310613;28;20270;-86
2023/01/10 00:51:02;;;;;;;4.97;4.57;;;;;;;;;;6310363;28;20290;-86
2023/01/10 00:54:14;;;;;;;5.33;4.83;;;;;;;;;;6293610;28;20290;-86
2023/01/10 00:57:23;;;;;;;7.30;5.40;;;;;;;;;;6310870;28;20295;-86
2023/01/10 01:00:31;;;;;;;6.93;5.33;;;;;;;;;;6310768;28;20605;-86
2023/01/10 01:03:38;;;;;;;6.40;5.30;;;;;;;;;;6293287;28;20267;-86
2023/01/10 01:06:45;;;;;;;6.37;5.00;;;;;;;;;;6308307;28;20302;-87
2023/01/10 01:13:15;;;;;;;5.70;5.20;;;;;;;;;;6310677;28;20460;-87
2023/01/10 01:16:22;;;;;;;5.60;5.10;;;;;;;;;;6308329;28;20298;-86
2023/01/10 01:19:35;;;;;;;6.20;5.47;;;;;;;;;;6310637;28;20290;-87
2023/01/10 01:22:46;;;;;;;6.10;5.20;;;;;;;;;;6311111;28;20271;-86
2023/01/10 01:25:52;;;;;;;5.97;5.33;;;;;;;;;;6309084;28;20352;-86
2023/01/10 01:28:59;;;;;;;7.07;5.93;;;;;;;;;;6310106;28;20515;-87
2023/01/10 01:32:05;;;;;;;8.10;5.77;;;;;;;;;;6309796;28;20273;-87
2023/01/10 01:35:16;;;;;;;7.50;5.57;;;;;;;;;;6309953;28;20302;-87
2023/01/10 01:38:21;;;;;;;6.27;5.67;;;;;;;;;;6309762;28;20271;-85
2023/01/10 01:45:37;;;;;;;6.87;5.03;;;;;;;;;;6309093;28;20297;-85
2023/01/10 01:48:44;;;;;;;5.20;4.77;;;;;;;;;;6311171;28;20277;-86
2023/01/10 01:55:15;;;;;;;5.03;4.60;;;;;;;;;;6314223;28;20618;-86
2023/01/10 01:58:26;;;;;;;5.07;4.57;;;;;;;;;;6314385;28;20475;-87
2023/01/10 02:01:34;;;;;;;4.57;4.27;;;;;;;;;;6313383;28;20305;-87
2023/01/10 02:04:45;;;;;;;4.87;4.40;;;;;;;;;;6296909;28;20286;-86
2023/01/10 02:07:54;;;;;;;4.37;3.97;;;;;;;;;;6297592;28;20295;-86
2023/01/10 02:11:07;;;;;;;4.30;4.00;;;;;;;;;;6314939;28;20295;-86
2023/01/10 02:14:31;;;;;;;4.63;4.23;;;;;;;;;;6296877;28;20286;-86
2023/01/10 02:17:40;;;;;;;4.60;4.20;;;;;;;;;;6313420;28;20295;-86
2023/01/10 02:21:09;;;;;;;4.23;3.93;;;;;;;;;;6296521;28;20585;-85
2023/01/10 02:24:45;;;;;;;5.43;3.70;;;;;;;;;;6297138;28;20606;-86
2023/01/10 02:28:17;;;;;;;4.47;4.07;;;;;;;;;;6313253;28;20284;-86
2023/01/10 02:31:53;;;;;;;3.47;3.27;;;;;;;;;;6312865;28;20320;-85
2023/01/10 02:35:09;;;;;;;3.80;3.50;;;;;;;;;;6312414;28;20363;-87
2023/01/10 02:38:27;;;;;;;3.70;3.50;;;;;;;;;;6313176;28;20447;-86
2023/01/10 02:41:40;;;;;;;3.70;3.50;;;;;;;;;;6313415;28;20292;-85
2023/01/10 02:44:49;;;;;;;2.83;2.73;;;;;;;;;;6312151;28;20312;-86
2023/01/10 02:47:58;;;;;;;3.90;2.80;;;;;;;;;;6312894;28;20439;-86
2023/01/10 02:51:19;;;;;;;2.60;2.60;;;;;;;;;;6281276;28;20304;-86
2023/01/10 02:54:34;;;;;;;2.17;2.10;;;;;;;;;;6312083;28;20290;-86
2023/01/10 02:57:47;;;;;;;2.60;2.50;;;;;;;;;;6313654;28;20305;-86
2023/01/10 03:00:58;;;;;;;2.77;2.57;;;;;;;;;;6311881;28;20296;-86
2023/01/10 03:04:21;;;;;;;2.50;2.40;;;;;;;;;;6295243;28;20291;-86
2023/01/10 03:07:32;;;;;;;2.17;2.17;;;;;;;;;;6313970;28;20298;-86
2023/01/10 03:10:42;;;;;;;2.10;2.00;;;;;;;;;;6313541;28;20297;-86
2023/01/10 03:13:51;;;;;;;2.60;2.50;;;;;;;;;;6295918;28;20268;-86
2023/01/10 03:17:01;;;;;;;2.00;2.00;;;;;;;;;;6313468;28;20299;-86
2023/01/10 03:20:12;;;;;;;2.00;1.90;;;;;;;;;;6296855;28;20297;-86
2023/01/10 03:23:20;;;;;;;1.90;1.90;;;;;;;;;;6313198;28;20317;-87
2023/01/10 03:26:29;;;;;;;1.80;1.80;;;;;;;;;;6316152;28;20619;-87
2023/01/10 03:29:40;;;;;;;1.60;1.60;;;;;;;;;;6315310;28;20293;-87
2023/01/10 03:32:45;;;;;;;1.60;1.60;;;;;;;;;;6281604;28;20272;-85
2023/01/10 03:35:59;;;;;;;1.57;1.57;;;;;;;;;;6312512;28;20292;-87
2023/01/10 03:39:16;;;;;;;1.67;1.57;;;;;;;;;;6296421;28;20551;-86
2023/01/10 03:44:42;;;;;;;1.40;1.40;;;;;;;;;;6312386;28;20276;-87
2023/01/10 03:45:57;;;;;;;1.50;1.50;;;;;;;;;;6312929;28;20295;-87
2023/01/10 03:49:05;;;;;;;1.40;1.40;;;;;;;;;;6311831;28;20272;-87
2023/01/10 03:52:14;;;;;;;1.60;1.60;;;;;;;;;;6297120;28;20346;-87
2023/01/10 03:55:23;;;;;;;1.40;1.40;;;;;;;;;;6312475;28;20298;-87
2023/01/10 03:58:29;;;;;;;1.63;1.63;;;;;;;;;;6312244;28;20286;-87
2023/01/10 04:01:37;;;;;;;1.40;1.40;;;;;;;;;;6313657;28;20298;-87
2023/01/10 04:04:43;;;;;;;1.37;1.37;;;;;;;;;;6312440;28;20301;-87
2023/01/10 04:07:49;;;;;;;1.50;1.47;;;;;;;;;;6295899;28;20298;-85
2023/01/10 04:10:56;;;;;;;1.60;1.60;;;;;;;;;;6312336;28;20304;-85
2023/01/10 04:14:02;;;;;;;1.50;1.50;;;;;;;;;;6294671;28;20299;-86
2023/01/10 04:17:12;;;;;;;1.30;1.30;;;;;;;;;;6326913;28;20289;-86
2023/01/10 04:20:18;;;;;;;2.00;1.90;;;;;;;;;;6326042;28;20264;-85
2023/01/10 04:23:27;;;;;;;1.53;1.53;;;;;;;;;;6293446;28;20241;-87
2023/01/10 04:27:04;;;;;;;1.90;1.80;;;;;;;;;;6328045;28;20239;-86
2023/01/10 04:30:11;;;;;;;2.20;1.80;;;;;;;;;;6326927;28;20254;-87
2023/01/10 04:33:17;;;;;;;1.87;1.87;;;;;;;;;;6311926;28;20289;-88
2023/01/10 04:36:22;;;;;;;1.80;1.80;;;;;;;;;;6310519;28;20266;-87
2023/01/10 04:39:30;;;;;;;2.20;1.93;;;;;;;;;;6310006;28;20304;-86
2023/01/10 04:42:39;;;;;;;2.17;1.93;;;;;;;;;;6310084;28;20264;-88
2023/01/10 04:45:45;;;;;;;2.43;2.07;;;;;;;;;;6309686;28;20298;-88
2023/01/10 04:48:57;;;;;;;1.97;1.70;;;;;;;;;;6309475;28;20304;-87
2023/01/10 04:52:06;;;;;;;2.00;1.90;;;;;;;;;;6277801;28;20262;-88
2023/01/10 04:55:13;;;;;;;2.07;2.07;;;;;;;;;;6309606;28;20321;-88
2023/01/10 04:58:22;;;;;;;2.30;2.30;;;;;;;;;;6309525;28;20318;-87
2023/01/10 05:01:28;;;;;;;2.10;2.10;;;;;;;;;;6309628;28;20477;-86
2023/01/10 05:04:34;;;;;;;2.70;2.50;;;;;;;;;;6311470;28;20449;-87
2023/01/10 05:07:42;;;;;;;2.43;2.33;;;;;;;;;;6293955;28;20298;-86
2023/01/10 05:10:48;;;;;;;2.50;2.40;;;;;;;;;;6309369;28;20289;-87
2023/01/10 05:13:58;;;;;;;2.60;2.40;;;;;;;;;;6292993;28;20302;-87
2023/01/10 05:17:04;;;;;;;2.50;2.50;;;;;;;;;;6311494;28;20269;-87
2023/01/10 05:20:13;;;;;;;2.40;2.30;;;;;;;;;;6309285;28;20303;-86
2023/01/10 05:23:24;;;;;;;4.13;2.67;;;;;;;;;;6313019;28;20301;-87
2023/01/10 05:26:30;;;;;;;2.13;2.03;;;;;;;;;;6267380;28;20274;-87
2023/01/10 05:29:45;;;;;;;2.57;2.37;;;;;;;;;;6298675;28;20399;-86
2023/01/10 05:32:51;;;;;;;2.30;2.30;;;;;;;;;;6320236;28;20266;-86
2023/01/10 05:35:57;;;;;;;2.70;2.50;;;;;;;;;;6321169;28;20253;-87
2023/01/10 05:39:06;;;;;;;2.43;2.30;;;;;;;;;;6324712;28;20310;-87
2023/01/10 05:42:12;;;;;;;3.90;2.53;;;;;;;;;;6328481;28;20266;-86
2023/01/10 05:45:22;;;;;;;4.60;2.80;;;;;;;;;;6330476;28;20243;-87
2023/01/10 05:48:30;;;;;;;3.17;2.73;;;;;;;;;;6314027;28;20250;-87
2023/01/10 05:51:41;;;;;;;2.70;2.60;;;;;;;;;;6330956;28;20227;-85
2023/01/10 05:54:46;;;;;;;2.40;2.30;;;;;;;;;;6313716;28;20323;-87
2023/01/10 05:57:53;;;;;;;3.07;2.80;;;;;;;;;;6325640;28;20267;-88
2023/01/10 06:01:04;;;;;;;2.77;2.67;;;;;;;;;;6322496;28;20578;-88
2023/01/10 06:04:13;;;;;;;2.80;2.70;;;;;;;;;;6321039;28;20292;-87
2023/01/10 06:07:31;;;;;;;2.83;2.73;;;;;;;;;;6319986;28;20303;-86
2023/01/10 06:10:38;;;;;;;2.63;2.50;;;;;;;;;;6318006;28;20287;-87
2023/01/10 06:13:47;;;;;;;2.77;2.57;;;;;;;;;;6318061;28;20306;-88
2023/01/10 06:16:54;;;;;;;2.90;2.70;;;;;;;;;;6314448;28;20549;-87
2023/01/10 06:19:59;;;;;;;3.07;2.73;;;;;;;;;;6312875;28;20296;-87
2023/01/10 06:23:05;;;;;;;3.17;2.97;;;;;;;;;;6313416;28;20272;-87
2023/01/10 06:26:11;;;;;;;3.00;2.90;;;;;;;;;;6315004;28;20290;-88
2023/01/10 06:29:19;;;;;;;2.87;2.77;;;;;;;;;;6298006;28;20520;-88
2023/01/10 06:32:27;;;;;;;2.87;2.73;;;;;;;;;;6314692;28;20388;-89
2023/01/10 06:35:33;;;;;;;3.33;3.13;;;;;;;;;;6313289;28;20296;-88
2023/01/10 06:38:39;;;;;;;3.40;3.20;;;;;;;;;;6297051;28;20572;-88
2023/01/10 06:41:45;;;;;;;3.83;3.53;;;;;;;;;;6265077;28;20272;-87
2023/01/10 06:44:55;;;;;;;4.87;3.37;;;;;;;;;;6280423;28;20296;-88
2023/01/10 06:48:03;;;;;;;3.60;3.40;;;;;;;;;;6312367;28;20273;-87
2023/01/10 06:51:11;;;;;;;6.27;3.87;;;;;;;;;;6313482;28;20269;-89
2023/01/10 06:54:18;;;;;;;13.03;4.93;;;;;;;;;;6296157;28;20407;-86
2023/01/10 06:57:24;;;;;;;7.10;4.53;;;;;;;;;;6314705;28;20267;-84
2023/01/10 07:00:30;;;;;;;9.07;4.83;;;;;;;;;;6305133;28;20304;-86
2023/01/10 07:03:36;;;;;;;8.30;5.10;;;;;;;;;;6328518;28;20285;-87
2023/01/10 07:06:42;;;;;;;9.30;5.17;;;;;;;;;;6325103;28;20301;-86
2023/01/10 07:09:47;;;;;;;14.10;6.13;;;;;;;;;;6317423;28;20305;-86
2023/01/10 07:12:54;;;;;;;14.83;6.13;;;;;;;;;;6316195;28;20546;-87
2023/01/10 07:16:03;;;;;;;15.27;5.90;;;;;;;;;;6314526;28;20272;-86
2023/01/10 07:19:12;;;;;;;12.80;6.07;;;;;;;;;;6313996;28;20476;-86
2023/01/10 07:22:17;;;;;;;13.40;6.53;;;;;;;;;;6316709;28;20263;-87
2023/01/10 07:25:23;;;;;;;14.80;6.57;;;;;;;;;;6295534;28;20449;-88
2023/01/10 07:28:28;;;;;;;10.63;5.57;;;;;;;;;;6313340;28;20459;-85
2023/01/10 07:31:34;;;;;;;11.87;5.43;;;;;;;;;;6312617;28;20277;-86
2023/01/10 07:34:40;;;;;;;8.90;5.63;;;;;;;;;;6313853;28;20613;-87
2023/01/10 07:37:46;;;;;;;11.53;6.00;;;;;;;;;;6312736;28;20565;-86
2023/01/10 07:40:51;;;;;;;11.13;6.40;;;;;;;;;;6294923;28;20293;-86
2023/01/10 07:43:56;;;;;;;9.23;5.97;;;;;;;;;;6312258;28;20297;-87
2023/01/10 07:47:02;;;;;;;6.73;5.33;;;;;;;;;;6311269;28;20281;-86
2023/01/10 07:50:10;;;;;;;9.63;5.87;;;;;;;;;;6312867;28;20611;-86
2023/01/10 07:53:15;;;;;;;7.73;5.47;;;;;;;;;;6311865;28;20384;-87
2023/01/10 07:56:21;;;;;;;6.40;5.73;;;;;;;;;;6313669;28;20372;-87
2023/01/10 07:59:26;;;;;;;6.20;5.60;;;;;;;;;;6311498;28;20546;-81
2023/01/10 08:02:31;;;;;;;10.23;5.60;;;;;;;;;;6311962;28;20459;-88
2023/01/10 08:05:38;;;;;;;6.30;5.70;;;;;;;;;;6312325;28;20291;-84
2023/01/10 08:08:43;;;;;;;7.70;5.37;;;;;;;;;;6309831;28;20290;-85
2023/01/10 08:11:49;;;;;;;6.93;5.43;;;;;;;;;;6311490;28;20529;-85
2023/01/10 08:14:54;;;;;;;6.00;5.40;;;;;;;;;;6312018;28;20293;-86
2023/01/10 08:18:01;;;;;;;5.97;5.10;;;;;;;;;;6294369;28;20264;-88
2023/01/10 08:21:13;;;;;;;7.13;5.37;;;;;;;;;;6311916;28;20280;-90
2023/01/10 08:24:18;;;;;;;8.07;5.67;;;;;;;;;;6294440;28;20295;-85
2023/01/10 08:27:23;;;;;;;7.80;5.73;;;;;;;;;;6310920;28;20273;-82
2023/01/10 08:30:29;;;;;;;9.27;5.50;;;;;;;;;;6310858;28;20302;-84
2023/01/10 08:33:34;;;;;;;6.13;5.53;;;;;;;;;;6310756;28;20316;-82
2023/01/10 08:36:41;;;;;;;6.07;5.47;;;;;;;;;;6311530;28;20267;-82
2023/01/10 08:39:46;;;;;;;5.43;4.87;;;;;;;;;;6309986;28;20307;-85
2023/01/10 08:42:57;;;;;;;7.40;5.37;;;;;;;;;;6311491;28;20273;-85
2023/01/10 08:46:03;;;;;;;6.13;4.93;;;;;;;;;;6311007;28;20277;-85
2023/01/10 08:49:09;;;;;;;5.53;5.00;;;;;;;;;;6310410;28;20293;-85
2023/01/10 08:52:15;;;;;;;5.93;4.90;;;;;;;;;;6310319;28;20273;-85
2023/01/10 08:55:21;;;;;;;5.33;4.90;;;;;;;;;;6311261;28;20303;-85
2023/01/10 08:58:26;;;;;;;5.00;4.60;;;;;;;;;;6309239;28;20296;-85
2023/01/10 09:01:32;;;;;;;5.77;4.40;;;;;;;;;;6310474;28;20293;-86
2023/01/10 09:04:37;;;;;;;5.13;4.70;;;;;;;;;;6310473;28;20295;-86
2023/01/10 09:07:45;;;;;;;5.07;4.63;;;;;;;;;;6321616;28;20302;-86
2023/01/10 09:10:51;;;;;;;6.27;4.90;;;;;;;;;;6324879;28;20232;-83
2023/01/10 09:13:56;;;;;;;7.47;5.07;;;;;;;;;;6325707;28;20256;-85
2023/01/10 09:17:01;;;;;;;6.87;5.30;;;;;;;;;;6326258;28;20224;-86
2023/01/10 09:20:09;;;;;;;5.90;5.27;;;;;;;;;;6319414;28;20300;-86
2023/01/10 09:23:18;;;;;;;5.73;5.13;;;;;;;;;;6308381;28;20292;-86
2023/01/10 09:26:24;;;;;;;6.87;5.40;;;;;;;;;;6311162;28;20268;-84
2023/01/10 09:29:29;;;;;;;5.87;5.27;;;;;;;;;;6310197;28;20295;-85
2023/01/10 09:32:34;;;;;;;6.30;5.47;;;;;;;;;;6309883;28;20270;-86
2023/01/10 09:35:41;;;;;;;9.30;5.70;;;;;;;;;;6310147;28;20298;-86
2023/01/10 09:38:48;;;;;;;6.00;5.20;;;;;;;;;;6308836;28;20299;-86
2023/01/10 09:42:05;;;;;;;5.37;4.93;;;;;;;;;;6310892;28;20428;-88
2023/01/10 09:45:16;;;;;;;6.60;5.50;;;;;;;;;;6309281;28;20292;-87
2023/01/10 09:48:27;;;;;;;5.77;5.27;;;;;;;;;;6308894;28;20368;-87
2023/01/10 09:51:37;;;;;;;5.90;5.30;;;;;;;;;;6309050;28;20274;-86
2023/01/10 09:54:44;;;;;;;8.47;5.50;;;;;;;;;;6309209;28;20308;-88
2023/01/10 09:57:50;;;;;;;5.67;5.17;;;;;;;;;;6311504;28;20273;-87
2023/01/10 10:00:57;;;;;;;5.50;4.97;;;;;;;;;;6309669;28;20302;-87
2023/01/10 10:04:07;;;;;;;7.47;4.97;;;;;;;;;;6311666;28;20291;-87
2023/01/10 10:07:16;;;;;;;5.67;5.10;;;;;;;;;;6311037;28;20291;-87
2023/01/10 10:10:26;;;;;;;7.53;4.80;;;;;;;;;;6311021;28;20285;-88
2023/01/10 10:13:41;;;;;;;6.07;5.47;;;;;;;;;;6300620;28;20289;-85
2023/01/10 10:16:59;;;;;;;7.57;5.90;;;;;;;;;;6329957;28;20226;-85
2023/01/10 10:20:20;;;;;;;7.30;5.43;;;;;;;;;;6330573;28;20250;-86
2023/01/10 10:23:51;;;;;;;7.43;5.30;;;;;;;;;;6328082;28;20244;-85
2023/01/10 10:27:00;;;;;;;8.43;5.60;;;;;;;;;;6322754;28;20229;-85
2023/01/10 10:30:18;;;;;;;6.53;5.40;;;;;;;;;;6315970;28;20305;-85
2023/01/10 10:33:38;;;;;;;6.57;5.03;;;;;;;;;;6312671;28;20676;-86
2023/01/10 10:36:48;;;;;;;6.53;4.77;;;;;;;;;;6322382;28;20254;-86
2023/01/10 10:39:55;;;;;;;5.47;5.00;;;;;;;;;;6296903;28;20304;-86
2023/01/10 10:43:14;;;;;;;6.37;5.33;;;;;;;;;;6312806;28;20290;-85
2023/01/10 10:46:19;;;;;;;4.80;4.50;;;;;;;;;;6313863;28;20268;-87
2023/01/10 10:49:35;;;;;;;5.33;4.83;;;;;;;;;;6313634;28;20300;-87
2023/01/10 10:52:41;;;;;;;4.83;4.50;;;;;;;;;;6313388;28;20450;-86
2023/01/10 10:55:46;;;;;;;5.20;4.80;;;;;;;;;;6312584;28;20299;-86
2023/01/10 10:58:54;;;;;;;5.30;4.80;;;;;;;;;;6312214;28;20293;-87
2023/01/10 11:02:00;;;;;;;4.90;4.50;;;;;;;;;;6312082;28;20303;-87
2023/01/10 11:05:09;;;;;;;5.67;4.40;;;;;;;;;;6312073;28;20596;-87
2023/01/10 11:08:17;;;;;;;4.63;4.23;;;;;;;;;;6294925;28;20299;-88
2023/01/10 11:11:26;;;;;;;4.53;3.93;;;;;;;;;;6313326;28;20273;-87
2023/01/10 11:14:44;;;;;;;5.53;4.17;;;;;;;;;;6311796;28;20304;-87
2023/01/10 11:18:05;;;;;;;5.60;4.20;;;;;;;;;;6314394;28;20275;-88
2023/01/10 11:21:13;;;;;;;5.00;4.50;;;;;;;;;;6311160;28;20455;-88
2023/01/10 11:24:23;;;;;;;5.97;4.87;;;;;;;;;;6312143;28;20312;-87
2023/01/10 11:27:31;;;;;;;5.27;4.30;;;;;;;;;;6314848;28;20274;-88
2023/01/10 11:30:38;;;;;;;7.77;4.37;;;;;;;;;;6312858;28;20294;-88
2023/01/10 11:33:43;;;;;;;5.90;4.70;;;;;;;;;;6313005;28;20317;-88
2023/01/10 11:36:55;;;;;;;6.17;4.93;;;;;;;;;;6312544;28;20335;-89
2023/01/10 11:40:15;;;;;;;9.33;5.03;;;;;;;;;;6311523;28;20316;-88
2023/01/10 11:43:27;;;;;;;6.33;4.93;;;;;;;;;;6311128;28;20296;-88
2023/01/10 11:46:34;;;;;;;7.27;5.40;;;;;;;;;;6312199;28;20253;-89
2023/01/10 11:49:42;;;;;;;7.00;5.23;;;;;;;;;;6311524;28;20300;-88
2023/01/10 11:52:49;;;;;;;5.77;5.23;;;;;;;;;;6312256;28;20256;-89
2023/01/10 11:55:54;;;;;;;4.70;4.50;;;;;;;;;;6286060;28;20273;-88
2023/01/10 11:59:11;;;;;;;7.10;5.57;;;;;;;;;;6296528;28;20297;-87
2023/01/10 12:02:23;;;;;;;5.53;5.00;;;;;;;;;;6312170;28;20278;-88
2023/01/10 12:05:28;;;;;;;12.03;5.73;;;;;;;;;;6312541;28;20301;-88
2023/01/10 12:08:36;;;;;;;5.83;5.27;;;;;;;;;;6294591;28;20292;-88
2023/01/10 12:11:41;;;;;;;6.03;5.10;;;;;;;;;;6308502;28;20280;-87
2023/01/10 12:14:47;;;;;;;6.77;5.60;;;;;;;;;;6287140;28;20296;-87
2023/01/10 12:17:55;;;;;;;5.90;5.10;;;;;;;;;;6285644;28;20579;-86
2023/01/10 12:21:00;;;;;;;6.17;5.47;;;;;;;;;;6286466;28;20272;-89
2023/01/10 12:24:11;;;;;;;8.00;5.20;;;;;;;;;;6290220;28;20303;-89
2023/01/10 12:27:18;;;;;;;6.17;5.57;;;;;;;;;;6292099;28;20268;-87
2023/01/10 12:30:31;;;;;;;10.27;5.97;;;;;;;;;;6249984;28;20319;-86
2023/01/10 12:33:45;;;;;;;9.27;5.87;;;;;;;;;;6261001;28;20310;-87
2023/01/10 12:36:58;;;;;;;11.73;5.80;;;;;;;;;;6261448;28;20292;-88
2023/01/10 12:40:09;;;;;;;6.53;5.60;;;;;;;;;;6262140;28;20594;-88
2023/01/10 12:46:48;;;;;;;7.33;5.53;;;;;;;;;;6245202;28;20269;-87
2023/01/10 12:50:21;;;;;;;8.53;5.13;;;;;;;;;;6260807;28;20297;-87
2023/01/10 12:53:32;;;;;;;9.20;5.00;;;;;;;;;;6260143;28;20291;-88
2023/01/10 12:56:39;;;;;;;9.23;5.57;;;;;;;;;;6261310;28;20453;-87
2023/01/10 12:59:46;;;;;;;6.43;5.10;;;;;;;;;;6244587;28;20302;-88
2023/01/10 13:02:54;;;;;;;9.57;5.43;;;;;;;;;;6259946;28;20487;-86
2023/01/10 13:06:06;;;;;;;8.77;6.07;;;;;;;;;;6259480;28;20295;-86
2023/01/10 13:09:16;;;;;;;5.33;4.87;;;;;;;;;;6259844;28;20309;-88
2023/01/10 13:12:24;;;;;;;10.57;5.63;;;;;;;;;;6281560;28;20438;-87
2023/01/10 13:15:37;;;;;;;11.40;5.70;;;;;;;;;;6306950;28;20298;-87
2023/01/10 13:19:00;;;;;;;9.67;5.10;;;;;;;;;;6309636;28;20297;-88
2023/01/10 13:22:23;;;;;;;9.07;5.57;;;;;;;;;;6309661;28;20268;-90
2023/01/10 13:25:33;;;;;;;5.17;4.67;;;;;;;;;;6308425;28;20347;-88
2023/01/10 13:28:54;;;;;;;6.03;4.70;;;;;;;;;;6309026;28;20296;-88
2023/01/10 13:32:03;;;;;;;4.97;4.43;;;;;;;;;;6293625;28;20553;-89
2023/01/10 13:35:15;;;;;;;6.10;4.80;;;;;;;;;;6309579;28;20296;-89
2023/01/10 13:38:25;;;;;;;4.57;4.17;;;;;;;;;;6309292;28;20291;-89
2023/01/10 13:45:30;;;;;;;4.83;4.50;;;;;;;;;;6312717;28;20317;-89
2023/01/10 13:48:37;;;;;;;3.70;3.40;;;;;;;;;;6298233;28;20301;-87
2023/01/10 13:52:38;;;;;;;3.97;3.57;;;;;;;;;;6316458;28;20275;-88
2023/01/10 13:55:58;;;;;;;4.37;3.53;;;;;;;;;;6315597;28;20296;-88
2023/01/10 14:02:49;;;;;;;4.97;3.60;;;;;;;;;;6222964;28;20306;-88
2023/01/10 14:05:56;;;;;;;3.27;3.13;;;;;;;;;;6197562;28;20279;-87
2023/01/10 14:09:03;;;;;;;5.37;3.50;;;;;;;;;;6299137;28;20555;-88
2023/01/10 14:12:23;;;;;;;4.10;3.80;;;;;;;;;;6319154;28;20273;-87
2023/01/10 14:15:31;;;;;;;3.80;3.50;;;;;;;;;;6323772;28;20292;-87
2023/01/10 14:18:40;;;;;;;4.33;3.73;;;;;;;;;;6323726;28;20302;-86
2023/01/10 14:21:47;;;;;;;4.13;3.73;;;;;;;;;;6307697;28;20270;-87
2023/01/10 14:24:53;;;;;;;3.90;3.60;;;;;;;;;;6308038;28;20295;-87
2023/01/10 14:28:00;;;;;;;3.77;3.47;;;;;;;;;;6323521;28;20221;-87
2023/01/10 14:31:09;;;;;;;3.57;3.30;;;;;;;;;;6317546;28;20458;-87
2023/01/10 14:34:19;;;;;;;5.13;3.87;;;;;;;;;;6316869;28;20315;-87
2023/01/10 14:37:28;;;;;;;3.77;3.57;;;;;;;;;;6317384;28;20260;-87
2023/01/10 14:40:40;;;;;;;3.60;3.40;;;;;;;;;;6316028;28;20306;-88
2023/01/10 14:43:53;;;;;;;4.10;3.37;;;;;;;;;;6298638;28;20302;-87
2023/01/10 14:47:01;;;;;;;4.53;3.63;;;;;;;;;;6319088;28;20262;-87
2023/01/10 14:50:23;;;;;;;5.03;3.60;;;;;;;;;;6323013;28;20309;-86
2023/01/10 14:53:30;;;;;;;6.03;3.50;;;;;;;;;;6324338;28;20297;-86
2023/01/10 14:56:39;;;;;;;3.53;3.23;;;;;;;;;;6318032;28;20267;-86
2023/01/10 14:59:46;;;;;;;5.23;3.30;;;;;;;;;;6313682;28;20392;-86
2023/01/10 15:02:51;;;;;;;5.30;3.30;;;;;;;;;;6314199;28;20264;-87
2023/01/10 15:05:58;;;;;;;3.80;3.60;;;;;;;;;;6314590;28;20305;-87
2023/01/10 15:09:04;;;;;;;3.77;3.50;;;;;;;;;;6314335;28;20471;-87
2023/01/10 15:12:13;;;;;;;4.33;3.53;;;;;;;;;;6315822;28;20260;-87
2023/01/10 15:15:23;;;;;;;3.83;3.47;;;;;;;;;;6314841;28;20305;-88
2023/01/10 15:18:32;;;;;;;3.20;3.00;;;;;;;;;;6314656;28;20481;-86
2023/01/10 15:21:42;;;;;;;3.33;3.00;;;;;;;;;;6314539;28;20273;-88
2023/01/10 15:24:59;;;;;;;3.37;3.17;;;;;;;;;;6313935;28;20293;-87
2023/01/10 15:28:06;;;;;;;3.97;3.17;;;;;;;;;;6314618;28;20461;-87
2023/01/10 15:31:15;;;;;;;3.77;3.33;;;;;;;;;;6313875;28;20565;-87
2023/01/10 15:34:23;;;;;;;3.07;2.93;;;;;;;;;;6314610;28;20301;-88
2023/01/10 15:37:32;;;;;;;2.93;2.83;;;;;;;;;;6313733;28;20270;-85
2023/01/10 15:40:40;;;;;;;4.43;3.20;;;;;;;;;;6312740;28;20507;-87
2023/01/10 15:43:45;;;;;;;4.90;2.67;;;;;;;;;;6311782;28;20294;-87
2023/01/10 15:46:57;;;;;;;3.13;2.80;;;;;;;;;;6312506;28;20281;-87
2023/01/10 15:50:02;;;;;;;3.80;3.30;;;;;;;;;;6313180;28;20297;-86
2023/01/10 15:53:10;;;;;;;6.47;4.00;;;;;;;;;;6312842;28;20273;-87
2023/01/10 15:56:19;;;;;;;4.30;3.60;;;;;;;;;;6321588;28;20265;-87
2023/01/10 15:59:27;;;;;;;3.60;3.30;;;;;;;;;;6312688;28;20313;-87
2023/01/10 16:02:36;;;;;;;3.63;3.30;;;;;;;;;;6295220;28;20276;-86
2023/01/10 16:05:53;;;;;;;9.40;3.67;;;;;;;;;;6313312;28;20301;-87
2023/01/10 16:09:00;;;;;;;3.30;3.10;;;;;;;;;;6319331;28;20321;-86
2023/01/10 16:15:29;;;;;;;4.30;3.50;;;;;;;;;;6327412;28;20245;-85
2023/01/10 16:18:37;;;;;;;5.67;3.40;;;;;;;;;;6326222;28;20309;-86
2023/01/10 16:21:45;;;;;;;4.83;2.57;;;;;;;;;;6324033;28;20266;-86
2023/01/10 16:24:51;;;;;;;2.87;2.50;;;;;;;;;;6317272;28;20308;-87
2023/01/10 16:27:57;;;;;;;3.03;2.60;;;;;;;;;;6310440;28;20272;-86
2023/01/10 16:31:02;;;;;;;6.77;2.83;;;;;;;;;;6312317;28;20268;-87
2023/01/10 16:34:11;;;;;;;4.73;3.00;;;;;;;;;;6310608;28;20308;-87
2023/01/10 16:37:17;;;;;;;2.53;2.30;;;;;;;;;;6294439;28;20485;-87
2023/01/10 16:40:25;;;;;;;5.47;3.00;;;;;;;;;;6311758;28;20317;-86
2023/01/10 16:43:29;;;;;;;3.10;2.90;;;;;;;;;;6310039;28;20306;-87
2023/01/10 16:46:35;;;;;;;2.80;2.50;;;;;;;;;;6310548;28;20293;-86
2023/01/10 16:49:42;;;;;;;2.80;2.40;;;;;;;;;;6311421;28;20297;-87
2023/01/10 16:52:47;;;;;;;3.37;2.37;;;;;;;;;;6311567;28;20269;-88
2023/01/10 16:55:53;;;;;;;5.43;2.93;;;;;;;;;;6311915;28;20276;-86
2023/01/10 16:58:59;;;;;;;2.97;2.70;;;;;;;;;;6309737;28;20302;-87
2023/01/10 17:02:08;;;;;;;2.27;2.17;;;;;;;;;;6311824;28;20317;-86
2023/01/10 17:05:15;;;;;;;2.47;2.33;;;;;;;;;;6309886;28;20301;-87
2023/01/10 17:08:22;;;;;;;3.03;2.70;;;;;;;;;;6311804;28;20296;-88
2023/01/10 17:11:31;;;;;;;4.77;2.63;;;;;;;;;;6314886;28;20265;-85
2023/01/10 17:14:37;;;;;;;5.53;2.57;;;;;;;;;;6313833;28;20291;-89
2023/01/10 17:17:43;;;;;;;2.97;2.70;;;;;;;;;;6315026;28;20245;-87
2023/01/10 17:20:51;;;;;;;2.70;2.33;;;;;;;;;;6312166;28;20292;-87
2023/01/10 17:23:57;;;;;;;6.10;2.70;;;;;;;;;;6310783;28;20297;-86
2023/01/10 17:27:02;;;;;;;3.87;2.70;;;;;;;;;;6310076;28;20287;-87
2023/01/10 17:30:08;;;;;;;4.17;3.13;;;;;;;;;;6309182;28;20300;-85
2023/01/10 17:33:14;;;;;;;11.80;5.03;;;;;;;;;;6310121;28;20301;-86
2023/01/10 17:36:21;;;;;;;10.77;5.73;;;;;;;;;;6312034;28;20353;-86
2023/01/10 17:39:26;;;;;;;12.87;4.97;;;;;;;;;;6309554;28;20311;-87
2023/01/10 17:42:32;;;;;;;15.17;5.80;;;;;;;;;;6310222;28;20266;-86
2023/01/10 17:45:40;;;;;;;20.57;5.63;;;;;;;;;;6309367;28;20296;-86
2023/01/10 17:48:47;;;;;;;18.03;5.40;;;;;;;;;;6311044;28;20348;-89
2023/01/10 17:51:58;;;;;;;5.70;3.20;;;;;;;;;;6294936;28;20276;-86
2023/01/10 17:55:06;;;;;;;4.63;3.63;;;;;;;;;;6311117;28;20301;-85
2023/01/10 17:58:13;;;;;;;6.47;4.33;;;;;;;;;;6310569;28;20300;-84
2023/01/10 18:01:20;;;;;;;11.83;4.77;;;;;;;;;;6309840;28;20276;-85
2023/01/10 18:04:30;;;;;;;11.77;4.80;;;;;;;;;;6310961;28;20477;-85
2023/01/10 18:07:39;;;;;;;6.23;3.27;;;;;;;;;;6311533;28;20312;-86
2023/01/10 18:10:45;;;;;;;7.43;4.00;;;;;;;;;;6267319;28;20316;-86
2023/01/10 18:13:51;;;;;;;10.20;3.40;;;;;;;;;;6284519;28;20439;-85
2023/01/10 18:16:58;;;;;;;6.90;3.10;;;;;;;;;;6283343;28;20273;-84
2023/01/10 18:20:06;;;;;;;4.97;3.33;;;;;;;;;;6283740;28;20402;-84
2023/01/10 18:23:25;;;;;;;4.63;2.57;;;;;;;;;;6285615;28;20291;-85
2023/01/10 18:26:43;;;;;;;4.20;2.30;;;;;;;;;;6283718;28;20296;-85
2023/01/10 18:29:48;;;;;;;7.47;2.23;;;;;;;;;;6284967;28;20301;-83
2023/01/10 18:32:55;;;;;;;5.13;2.40;;;;;;;;;;6287268;28;20271;-84
2023/01/10 18:36:03;;;;;;;3.67;2.30;;;;;;;;;;6289574;28;20278;-84
2023/01/10 18:39:10;;;;;;;3.60;2.00;;;;;;;;;;6288535;28;20292;-83
2023/01/10 18:42:15;;;;;;;3.47;2.50;;;;;;;;;;6288621;28;20282;-83
2023/01/10 18:45:25;;;;;;;6.63;2.87;;;;;;;;;;6287119;28;20302;-83
2023/01/10 18:48:30;;;;;;;6.17;2.70;;;;;;;;;;6288594;28;20297;-84
2023/01/10 18:51:37;;;;;;;3.17;2.60;;;;;;;;;;6292822;28;20274;-83
2023/01/10 18:54:43;;;;;;;4.07;2.10;;;;;;;;;;6294493;28;20352;-81
2023/01/10 18:57:51;;;;;;;4.53;2.53;;;;;;;;;;6297483;28;20278;-83
2023/01/10 19:00:57;;;;;;;3.63;2.27;;;;;;;;;;6299633;28;20263;-83
2023/01/10 19:04:05;;;;;;;3.43;2.47;;;;;;;;;;6302568;28;20257;-84
2023/01/10 19:07:12;;;;;;;2.97;1.83;;;;;;;;;;6298186;28;20293;-83
2023/01/10 19:10:19;;;;;;;2.83;2.73;;;;;;;;;;6294004;28;20345;-84
2023/01/10 19:13:25;;;;;;;2.67;1.80;;;;;;;;;;6313494;28;20309;-85
2023/01/10 19:16:31;;;;;;;5.30;2.10;;;;;;;;;;6314869;28;20288;-85
2023/01/10 19:19:37;;;;;;;4.97;2.87;;;;;;;;;;6317614;28;20293;-86
2023/01/10 19:22:43;;;;;;;6.80;3.00;;;;;;;;;;6316958;28;20285;-88
2023/01/10 19:25:58;;;;;;;8.97;2.70;;;;;;;;;;6296999;28;20273;-87